sensor_id;sensor_type;location;lat;lon;timestamp;temperature;humidity
47338;DHT22;33069;51.970;5.892;2022-12-20T00:01:25;10.00;80.00
47338;DHT22;33069;51.970;5.892;2022-12-20T00:03:53;10.00;79.60
47338;DHT22;33069;51.970;5.892;2022-12-20T00:06:19;9.90;79.50
47338;DHT22;33069;51.970;5.892;2022-12-20T00:08:45;9.90;79.50
47338;DHT22;33069;51.970;5.892;2022-12-20T00:11:12;9.80;79.80
47338;DHT22;33069;51.970;5.892;2022-12-20T00:13:38;10.00;79.40
47338;DHT22;33069;51.970;5.892;2022-12-20T00:16:11;9.90;79.30
47338;DHT22;33069;51.970;5.892;2022-12-20T00:18:38;10.00;79.40
47338;DHT22;33069;51.970;5.892;2022-12-20T00:21:06;10.10;79.50
47338;DHT22;33069;51.970;5.892;2022-12-20T00:23:33;10.20;78.60
47338;DHT22;33069;51.970;5.892;2022-12-20T00:26:09;10.30;78.40
47338;DHT22;33069;51.970;5.892;2022-12-20T00:28:36;10.40;77.90
47338;DHT22;33069;51.970;5.892;2022-12-20T00:31:03;10.40;78.10
47338;DHT22;33069;51.970;5.892;2022-12-20T00:33:29;10.40;77.70
47338;DHT22;33069;51.970;5.892;2022-12-20T00:35:56;10.50;77.80
47338;DHT22;33069;51.970;5.892;2022-12-20T00:38:23;10.80;76.50
47338;DHT22;33069;51.970;5.892;2022-12-20T00:44:05;10.70;76.10
47338;DHT22;33069;51.970;5.892;2022-12-20T00:46:31;10.80;76.00
47338;DHT22;33069;51.970;5.892;2022-12-20T00:48:58;10.80;76.10
47338;DHT22;33069;51.970;5.892;2022-12-20T00:51:27;11.00;75.70
47338;DHT22;33069;51.970;5.892;2022-12-20T00:53:53;11.00;75.50
47338;DHT22;33069;51.970;5.892;2022-12-20T00:56:19;11.00;75.10
47338;DHT22;33069;51.970;5.892;2022-12-20T00:58:45;11.00;75.30
47338;DHT22;33069;51.970;5.892;2022-12-20T01:01:20;11.00;75.40
47338;DHT22;33069;51.970;5.892;2022-12-20T01:03:46;11.10;75.70
47338;DHT22;33069;51.970;5.892;2022-12-20T01:06:13;11.10;75.00
47338;DHT22;33069;51.970;5.892;2022-12-20T01:08:38;11.10;75.00
47338;DHT22;33069;51.970;5.892;2022-12-20T01:11:08;11.20;75.40
47338;DHT22;33069;51.970;5.892;2022-12-20T01:16:50;11.30;73.90
47338;DHT22;33069;51.970;5.892;2022-12-20T01:19:17;11.10;75.00
47338;DHT22;33069;51.970;5.892;2022-12-20T01:21:43;11.00;75.00
47338;DHT22;33069;51.970;5.892;2022-12-20T01:24:13;11.20;74.90
47338;DHT22;33069;51.970;5.892;2022-12-20T01:26:39;11.10;75.30
47338;DHT22;33069;51.970;5.892;2022-12-20T01:29:05;11.20;75.00
47338;DHT22;33069;51.970;5.892;2022-12-20T01:31:31;11.20;74.90
47338;DHT22;33069;51.970;5.892;2022-12-20T01:33:58;11.40;74.60
47338;DHT22;33069;51.970;5.892;2022-12-20T01:36:29;11.30;74.30
47338;DHT22;33069;51.970;5.892;2022-12-20T01:38:59;11.20;74.80
47338;DHT22;33069;51.970;5.892;2022-12-20T01:41:27;11.50;74.40
47338;DHT22;33069;51.970;5.892;2022-12-20T01:43:54;11.40;74.20
47338;DHT22;33069;51.970;5.892;2022-12-20T01:46:22;11.40;74.50
47338;DHT22;33069;51.970;5.892;2022-12-20T01:51:22;11.10;75.80
47338;DHT22;33069;51.970;5.892;2022-12-20T01:53:54;11.00;76.90
47338;DHT22;33069;51.970;5.892;2022-12-20T01:56:21;11.20;77.10
47338;DHT22;33069;51.970;5.892;2022-12-20T01:58:48;11.00;78.20
47338;DHT22;33069;51.970;5.892;2022-12-20T02:01:30;10.80;78.90
47338;DHT22;33069;51.970;5.892;2022-12-20T02:03:56;10.90;79.50
47338;DHT22;33069;51.970;5.892;2022-12-20T02:06:24;10.70;80.90
47338;DHT22;33069;51.970;5.892;2022-12-20T02:08:52;10.70;81.30
47338;DHT22;33069;51.970;5.892;2022-12-20T02:11:25;10.70;82.00
47338;DHT22;33069;51.970;5.892;2022-12-20T02:16:27;10.50;83.40
47338;DHT22;33069;51.970;5.892;2022-12-20T02:19:34;10.40;83.70
47338;DHT22;33069;51.970;5.892;2022-12-20T02:22:38;10.20;84.40
47338;DHT22;33069;51.970;5.892;2022-12-20T02:28:10;10.00;85.80
47338;DHT22;33069;51.970;5.892;2022-12-20T02:30:42;10.00;86.20
47338;DHT22;33069;51.970;5.892;2022-12-20T02:33:11;10.10;86.50
47338;DHT22;33069;51.970;5.892;2022-12-20T02:35:39;9.90;86.70
47338;DHT22;33069;51.970;5.892;2022-12-20T02:38:27;9.80;87.00
47338;DHT22;33069;51.970;5.892;2022-12-20T02:41:22;9.80;87.30
47338;DHT22;33069;51.970;5.892;2022-12-20T02:43:49;9.80;87.70
47338;DHT22;33069;51.970;5.892;2022-12-20T02:46:35;9.80;87.90
47338;DHT22;33069;51.970;5.892;2022-12-20T02:49:06;9.80;88.00
47338;DHT22;33069;51.970;5.892;2022-12-20T02:51:33;9.80;88.10
47338;DHT22;33069;51.970;5.892;2022-12-20T02:54:00;9.80;88.20
47338;DHT22;33069;51.970;5.892;2022-12-20T02:57:04;9.80;88.20
47338;DHT22;33069;51.970;5.892;2022-12-20T02:59:43;9.80;88.30
47338;DHT22;33069;51.970;5.892;2022-12-20T03:02:10;9.70;88.40
47338;DHT22;33069;51.970;5.892;2022-12-20T03:04:38;9.70;88.50
47338;DHT22;33069;51.970;5.892;2022-12-20T03:07:10;9.70;88.60
47338;DHT22;33069;51.970;5.892;2022-12-20T03:09:38;9.70;88.70
47338;DHT22;33069;51.970;5.892;2022-12-20T03:12:05;9.70;88.70
47338;DHT22;33069;51.970;5.892;2022-12-20T03:14:31;9.80;88.90
47338;DHT22;33069;51.970;5.892;2022-12-20T03:16:57;9.70;88.80
47338;DHT22;33069;51.970;5.892;2022-12-20T03:19:23;9.80;88.80
47338;DHT22;33069;51.970;5.892;2022-12-20T03:21:49;9.70;88.80
47338;DHT22;33069;51.970;5.892;2022-12-20T03:24:15;9.80;88.80
47338;DHT22;33069;51.970;5.892;2022-12-20T03:26:41;9.70;88.70
47338;DHT22;33069;51.970;5.892;2022-12-20T03:29:08;9.70;88.60
47338;DHT22;33069;51.970;5.892;2022-12-20T03:31:35;9.70;88.60
47338;DHT22;33069;51.970;5.892;2022-12-20T03:34:00;9.80;88.50
47338;DHT22;33069;51.970;5.892;2022-12-20T03:36:26;9.80;88.50
47338;DHT22;33069;51.970;5.892;2022-12-20T03:38:52;9.70;88.30
47338;DHT22;33069;51.970;5.892;2022-12-20T03:41:19;9.70;88.20
47338;DHT22;33069;51.970;5.892;2022-12-20T03:43:49;9.80;88.20
47338;DHT22;33069;51.970;5.892;2022-12-20T03:46:15;9.80;88.10
47338;DHT22;33069;51.970;5.892;2022-12-20T03:48:42;9.80;88.00
47338;DHT22;33069;51.970;5.892;2022-12-20T03:51:07;9.80;87.90
47338;DHT22;33069;51.970;5.892;2022-12-20T03:53:33;9.80;87.70
47338;DHT22;33069;51.970;5.892;2022-12-20T03:55:59;9.90;87.50
47338;DHT22;33069;51.970;5.892;2022-12-20T03:58:25;10.00;87.30
47338;DHT22;33069;51.970;5.892;2022-12-20T04:00:51;9.90;86.90
47338;DHT22;33069;51.970;5.892;2022-12-20T04:03:17;9.90;86.90
47338;DHT22;33069;51.970;5.892;2022-12-20T04:05:42;9.90;86.90
47338;DHT22;33069;51.970;5.892;2022-12-20T04:08:08;10.20;86.90
47338;DHT22;33069;51.970;5.892;2022-12-20T04:10:34;10.10;86.20
47338;DHT22;33069;51.970;5.892;2022-12-20T04:13:19;10.20;86.20
47338;DHT22;33069;51.970;5.892;2022-12-20T04:15:45;10.20;85.60
47338;DHT22;33069;51.970;5.892;2022-12-20T04:18:11;10.20;85.30
47338;DHT22;33069;51.970;5.892;2022-12-20T04:20:36;10.30;85.20
47338;DHT22;33069;51.970;5.892;2022-12-20T04:23:02;10.30;84.90
47338;DHT22;33069;51.970;5.892;2022-12-20T04:25:28;10.30;85.00
47338;DHT22;33069;51.970;5.892;2022-12-20T04:27:53;10.30;84.90
47338;DHT22;33069;51.970;5.892;2022-12-20T04:30:19;10.30;84.70
47338;DHT22;33069;51.970;5.892;2022-12-20T04:32:44;10.50;84.60
47338;DHT22;33069;51.970;5.892;2022-12-20T04:35:10;10.50;83.90
47338;DHT22;33069;51.970;5.892;2022-12-20T04:37:36;10.50;83.70
47338;DHT22;33069;51.970;5.892;2022-12-20T04:40:02;10.50;83.80
47338;DHT22;33069;51.970;5.892;2022-12-20T04:42:28;10.70;83.70
47338;DHT22;33069;51.970;5.892;2022-12-20T04:44:53;10.70;83.40
47338;DHT22;33069;51.970;5.892;2022-12-20T04:47:19;10.70;82.80
47338;DHT22;33069;51.970;5.892;2022-12-20T04:49:45;10.60;82.90
47338;DHT22;33069;51.970;5.892;2022-12-20T04:52:10;10.60;83.10
47338;DHT22;33069;51.970;5.892;2022-12-20T04:54:55;10.70;83.20
47338;DHT22;33069;51.970;5.892;2022-12-20T04:57:20;10.70;82.80
47338;DHT22;33069;51.970;5.892;2022-12-20T04:59:46;10.60;82.90
47338;DHT22;33069;51.970;5.892;2022-12-20T05:02:12;10.70;83.10
47338;DHT22;33069;51.970;5.892;2022-12-20T05:04:37;10.70;82.90
47338;DHT22;33069;51.970;5.892;2022-12-20T05:07:03;10.80;83.00
47338;DHT22;33069;51.970;5.892;2022-12-20T05:09:29;10.80;83.20
47338;DHT22;33069;51.970;5.892;2022-12-20T05:11:54;10.80;83.00
47338;DHT22;33069;51.970;5.892;2022-12-20T05:14:20;10.80;83.30
47338;DHT22;33069;51.970;5.892;2022-12-20T05:16:46;11.20;83.10
47338;DHT22;33069;51.970;5.892;2022-12-20T05:19:11;11.00;82.70
47338;DHT22;33069;51.970;5.892;2022-12-20T05:21:37;11.00;83.30
47338;DHT22;33069;51.970;5.892;2022-12-20T05:24:21;11.00;83.80
47338;DHT22;33069;51.970;5.892;2022-12-20T05:27:05;11.00;83.90
47338;DHT22;33069;51.970;5.892;2022-12-20T05:29:31;11.20;84.60
47338;DHT22;33069;51.970;5.892;2022-12-20T05:31:57;11.00;84.50
47338;DHT22;33069;51.970;5.892;2022-12-20T05:34:22;10.80;85.10
47338;DHT22;33069;51.970;5.892;2022-12-20T05:36:55;10.70;85.50
47338;DHT22;33069;51.970;5.892;2022-12-20T05:39:20;10.70;86.00
47338;DHT22;33069;51.970;5.892;2022-12-20T05:41:46;10.60;86.10
47338;DHT22;33069;51.970;5.892;2022-12-20T05:44:12;10.70;86.40
47338;DHT22;33069;51.970;5.892;2022-12-20T05:46:37;10.70;86.30
47338;DHT22;33069;51.970;5.892;2022-12-20T05:49:03;10.70;86.60
47338;DHT22;33069;51.970;5.892;2022-12-20T05:51:29;10.70;86.60
47338;DHT22;33069;51.970;5.892;2022-12-20T05:53:54;10.70;86.20
47338;DHT22;33069;51.970;5.892;2022-12-20T05:56:20;10.60;86.60
47338;DHT22;33069;51.970;5.892;2022-12-20T05:58:46;10.60;86.80
47338;DHT22;33069;51.970;5.892;2022-12-20T06:01:11;10.50;87.00
47338;DHT22;33069;51.970;5.892;2022-12-20T06:03:38;10.40;87.20
47338;DHT22;33069;51.970;5.892;2022-12-20T06:06:05;10.30;87.30
47338;DHT22;33069;51.970;5.892;2022-12-20T06:08:30;10.30;87.40
47338;DHT22;33069;51.970;5.892;2022-12-20T06:10:56;10.50;87.40
47338;DHT22;33069;51.970;5.892;2022-12-20T06:13:22;10.40;87.10
47338;DHT22;33069;51.970;5.892;2022-12-20T06:15:48;10.40;87.00
47338;DHT22;33069;51.970;5.892;2022-12-20T06:18:13;10.40;86.80
47338;DHT22;33069;51.970;5.892;2022-12-20T06:20:39;10.40;86.60
47338;DHT22;33069;51.970;5.892;2022-12-20T06:23:05;10.40;86.40
47338;DHT22;33069;51.970;5.892;2022-12-20T06:25:32;10.40;86.30
47338;DHT22;33069;51.970;5.892;2022-12-20T06:27:58;10.40;86.20
47338;DHT22;33069;51.970;5.892;2022-12-20T06:30:24;10.50;86.00
47338;DHT22;33069;51.970;5.892;2022-12-20T06:32:49;10.50;85.80
47338;DHT22;33069;51.970;5.892;2022-12-20T06:35:15;10.60;85.50
47338;DHT22;33069;51.970;5.892;2022-12-20T06:37:41;10.70;85.30
47338;DHT22;33069;51.970;5.892;2022-12-20T06:40:09;10.60;85.00
47338;DHT22;33069;51.970;5.892;2022-12-20T06:42:35;10.60;85.10
47338;DHT22;33069;51.970;5.892;2022-12-20T06:45:01;10.70;84.90
47338;DHT22;33069;51.970;5.892;2022-12-20T06:47:26;10.80;84.80
47338;DHT22;33069;51.970;5.892;2022-12-20T06:49:52;10.80;84.60
47338;DHT22;33069;51.970;5.892;2022-12-20T06:52:18;10.70;84.30
47338;DHT22;33069;51.970;5.892;2022-12-20T06:54:44;10.80;84.30
47338;DHT22;33069;51.970;5.892;2022-12-20T06:57:09;10.70;83.90
47338;DHT22;33069;51.970;5.892;2022-12-20T06:59:35;10.70;84.00
47338;DHT22;33069;51.970;5.892;2022-12-20T07:02:01;10.70;84.00
47338;DHT22;33069;51.970;5.892;2022-12-20T07:04:26;10.80;83.70
47338;DHT22;33069;51.970;5.892;2022-12-20T07:06:52;10.90;83.20
47338;DHT22;33069;51.970;5.892;2022-12-20T07:09:18;11.00;82.60
47338;DHT22;33069;51.970;5.892;2022-12-20T07:11:44;11.00;82.40
47338;DHT22;33069;51.970;5.892;2022-12-20T07:14:31;10.90;82.40
47338;DHT22;33069;51.970;5.892;2022-12-20T07:16:57;10.90;82.10
47338;DHT22;33069;51.970;5.892;2022-12-20T07:19:22;11.00;82.10
47338;DHT22;33069;51.970;5.892;2022-12-20T07:21:48;11.00;81.70
47338;DHT22;33069;51.970;5.892;2022-12-20T07:24:14;10.80;81.80
47338;DHT22;33069;51.970;5.892;2022-12-20T07:26:40;10.90;82.00
47338;DHT22;33069;51.970;5.892;2022-12-20T07:29:06;10.90;81.60
47338;DHT22;33069;51.970;5.892;2022-12-20T07:31:31;11.10;81.60
47338;DHT22;33069;51.970;5.892;2022-12-20T07:33:57;10.90;81.20
47338;DHT22;33069;51.970;5.892;2022-12-20T07:36:23;11.00;81.20
47338;DHT22;33069;51.970;5.892;2022-12-20T07:38:48;10.80;81.40
47338;DHT22;33069;51.970;5.892;2022-12-20T07:41:16;10.80;81.70
47338;DHT22;33069;51.970;5.892;2022-12-20T07:43:42;10.80;81.20
47338;DHT22;33069;51.970;5.892;2022-12-20T07:46:09;10.80;81.10
47338;DHT22;33069;51.970;5.892;2022-12-20T07:48:37;10.80;81.20
47338;DHT22;33069;51.970;5.892;2022-12-20T07:51:09;10.80;81.10
47338;DHT22;33069;51.970;5.892;2022-12-20T07:53:40;10.90;80.90
47338;DHT22;33069;51.970;5.892;2022-12-20T07:56:08;11.00;80.30
47338;DHT22;33069;51.970;5.892;2022-12-20T07:58:36;11.00;80.00
47338;DHT22;33069;51.970;5.892;2022-12-20T08:01:03;11.00;80.00
47338;DHT22;33069;51.970;5.892;2022-12-20T08:03:34;11.10;80.40
47338;DHT22;33069;51.970;5.892;2022-12-20T08:06:03;11.20;79.70
47338;DHT22;33069;51.970;5.892;2022-12-20T08:08:31;11.10;79.30
47338;DHT22;33069;51.970;5.892;2022-12-20T08:10:59;11.10;79.70
47338;DHT22;33069;51.970;5.892;2022-12-20T08:13:26;11.10;80.00
47338;DHT22;33069;51.970;5.892;2022-12-20T08:15:52;11.00;80.40
47338;DHT22;33069;51.970;5.892;2022-12-20T08:18:17;11.10;80.40
47338;DHT22;33069;51.970;5.892;2022-12-20T08:20:43;11.10;79.90
47338;DHT22;33069;51.970;5.892;2022-12-20T08:23:09;11.20;79.70
47338;DHT22;33069;51.970;5.892;2022-12-20T08:25:34;11.20;79.90
47338;DHT22;33069;51.970;5.892;2022-12-20T08:28:00;11.10;80.00
47338;DHT22;33069;51.970;5.892;2022-12-20T08:30:27;11.20;80.20
47338;DHT22;33069;51.970;5.892;2022-12-20T08:32:54;11.20;80.30
47338;DHT22;33069;51.970;5.892;2022-12-20T08:35:20;11.20;80.00
47338;DHT22;33069;51.970;5.892;2022-12-20T08:37:46;11.20;81.40
47338;DHT22;33069;51.970;5.892;2022-12-20T08:40:12;11.00;81.20
47338;DHT22;33069;51.970;5.892;2022-12-20T08:42:37;10.80;82.00
47338;DHT22;33069;51.970;5.892;2022-12-20T08:45:03;10.80;82.60
47338;DHT22;33069;51.970;5.892;2022-12-20T08:47:29;10.80;82.30
47338;DHT22;33069;51.970;5.892;2022-12-20T08:49:55;10.90;82.70
47338;DHT22;33069;51.970;5.892;2022-12-20T08:52:21;10.90;81.90
47338;DHT22;33069;51.970;5.892;2022-12-20T08:54:46;11.10;81.80
47338;DHT22;33069;51.970;5.892;2022-12-20T08:57:12;11.00;81.50
47338;DHT22;33069;51.970;5.892;2022-12-20T08:59:38;11.20;81.40
47338;DHT22;33069;51.970;5.892;2022-12-20T09:02:04;11.10;81.40
47338;DHT22;33069;51.970;5.892;2022-12-20T09:04:30;11.00;81.90
47338;DHT22;33069;51.970;5.892;2022-12-20T09:06:56;11.00;82.00
47338;DHT22;33069;51.970;5.892;2022-12-20T09:09:21;10.90;82.70
47338;DHT22;33069;51.970;5.892;2022-12-20T09:11:47;10.80;83.70
47338;DHT22;33069;51.970;5.892;2022-12-20T09:14:13;10.70;84.30
47338;DHT22;33069;51.970;5.892;2022-12-20T09:16:38;10.80;84.80
47338;DHT22;33069;51.970;5.892;2022-12-20T09:19:04;10.80;84.70
47338;DHT22;33069;51.970;5.892;2022-12-20T09:21:30;10.70;85.10
47338;DHT22;33069;51.970;5.892;2022-12-20T09:23:56;10.70;85.90
47338;DHT22;33069;51.970;5.892;2022-12-20T09:26:23;10.70;86.10
47338;DHT22;33069;51.970;5.892;2022-12-20T09:28:49;10.50;86.10
47338;DHT22;33069;51.970;5.892;2022-12-20T09:31:17;10.70;86.70
47338;DHT22;33069;51.970;5.892;2022-12-20T09:33:44;10.60;86.70
47338;DHT22;33069;51.970;5.892;2022-12-20T09:36:11;10.50;86.60
47338;DHT22;33069;51.970;5.892;2022-12-20T09:38:37;10.40;86.90
47338;DHT22;33069;51.970;5.892;2022-12-20T09:41:06;10.30;87.10
47338;DHT22;33069;51.970;5.892;2022-12-20T09:43:33;10.30;87.30
47338;DHT22;33069;51.970;5.892;2022-12-20T09:46:00;10.40;87.60
47338;DHT22;33069;51.970;5.892;2022-12-20T09:48:39;10.40;87.60
47338;DHT22;33069;51.970;5.892;2022-12-20T09:56:55;10.40;87.70
47338;DHT22;33069;51.970;5.892;2022-12-20T09:59:22;10.40;87.60
47338;DHT22;33069;51.970;5.892;2022-12-20T10:01:49;10.50;87.50
47338;DHT22;33069;51.970;5.892;2022-12-20T10:04:28;10.50;87.30
47338;DHT22;33069;51.970;5.892;2022-12-20T10:12:54;10.70;87.30
47338;DHT22;33069;51.970;5.892;2022-12-20T10:15:42;10.70;87.40
47338;DHT22;33069;51.970;5.892;2022-12-20T10:19:00;10.70;87.10
47338;DHT22;33069;51.970;5.892;2022-12-20T10:24:32;10.60;87.10
47338;DHT22;33069;51.970;5.892;2022-12-20T10:27:14;10.50;87.10
47338;DHT22;33069;51.970;5.892;2022-12-20T10:29:40;10.50;87.20
47338;DHT22;33069;51.970;5.892;2022-12-20T10:32:16;10.60;87.40
47338;DHT22;33069;51.970;5.892;2022-12-20T10:34:56;10.60;87.50
47338;DHT22;33069;51.970;5.892;2022-12-20T10:37:24;10.40;87.70
47338;DHT22;33069;51.970;5.892;2022-12-20T10:39:51;10.40;87.90
47338;DHT22;33069;51.970;5.892;2022-12-20T10:42:24;10.50;88.20
47338;DHT22;33069;51.970;5.892;2022-12-20T10:44:51;10.60;88.30
47338;DHT22;33069;51.970;5.892;2022-12-20T10:47:43;10.50;88.10
47338;DHT22;33069;51.970;5.892;2022-12-20T10:50:18;10.40;88.30
47338;DHT22;33069;51.970;5.892;2022-12-20T10:52:45;10.50;88.50
47338;DHT22;33069;51.970;5.892;2022-12-20T10:55:34;10.70;88.70
47338;DHT22;33069;51.970;5.892;2022-12-20T11:01:33;10.40;88.30
47338;DHT22;33069;51.970;5.892;2022-12-20T11:14:28;10.50;88.70
47338;DHT22;33069;51.970;5.892;2022-12-20T11:16:55;10.50;88.70
47338;DHT22;33069;51.970;5.892;2022-12-20T11:19:37;10.70;89.00
47338;DHT22;33069;51.970;5.892;2022-12-20T11:28:08;10.50;88.60
47338;DHT22;33069;51.970;5.892;2022-12-20T11:39:00;10.60;88.70
47338;DHT22;33069;51.970;5.892;2022-12-20T11:41:54;10.70;88.90
47338;DHT22;33069;51.970;5.892;2022-12-20T11:50:12;10.80;88.40
47338;DHT22;33069;51.970;5.892;2022-12-20T11:52:53;10.80;88.30
47338;DHT22;33069;51.970;5.892;2022-12-20T11:55:28;10.80;88.00
47338;DHT22;33069;51.970;5.892;2022-12-20T11:58:06;10.80;88.20
47338;DHT22;33069;51.970;5.892;2022-12-20T12:00:38;10.70;88.10
47338;DHT22;33069;51.970;5.892;2022-12-20T12:03:55;10.70;88.60
47338;DHT22;33069;51.970;5.892;2022-12-20T12:06:04;10.90;88.60
47338;DHT22;33069;51.970;5.892;2022-12-20T12:08:42;10.90;88.50
47338;DHT22;33069;51.970;5.892;2022-12-20T12:11:31;10.80;88.60
47338;DHT22;33069;51.970;5.892;2022-12-20T12:14:00;10.70;88.60
47338;DHT22;33069;51.970;5.892;2022-12-20T12:16:33;11.00;88.90
47338;DHT22;33069;51.970;5.892;2022-12-20T12:19:00;10.80;88.70
47338;DHT22;33069;51.970;5.892;2022-12-20T12:21:36;10.90;88.80
47338;DHT22;33069;51.970;5.892;2022-12-20T12:24:24;10.90;88.70
47338;DHT22;33069;51.970;5.892;2022-12-20T12:26:51;10.80;88.70
47338;DHT22;33069;51.970;5.892;2022-12-20T12:29:18;10.80;88.90
47338;DHT22;33069;51.970;5.892;2022-12-20T12:32:07;10.80;88.90
47338;DHT22;33069;51.970;5.892;2022-12-20T12:35:06;10.80;88.90
47338;DHT22;33069;51.970;5.892;2022-12-20T12:45:35;10.80;88.80
47338;DHT22;33069;51.970;5.892;2022-12-20T12:50:53;10.70;89.20
47338;DHT22;33069;51.970;5.892;2022-12-20T12:53:43;10.80;89.40
47338;DHT22;33069;51.970;5.892;2022-12-20T13:04:28;10.80;89.50
47338;DHT22;33069;51.970;5.892;2022-12-20T13:06:58;10.90;89.50
47338;DHT22;33069;51.970;5.892;2022-12-20T13:20:28;10.90;89.20
47338;DHT22;33069;51.970;5.892;2022-12-20T13:25:35;10.90;89.50
47338;DHT22;33069;51.970;5.892;2022-12-20T13:44:34;10.90;89.30
47338;DHT22;33069;51.970;5.892;2022-12-20T13:49:47;10.90;89.60
47338;DHT22;33069;51.970;5.892;2022-12-20T13:52:26;11.00;89.70
47338;DHT22;33069;51.970;5.892;2022-12-20T13:54:56;10.80;89.50
47338;DHT22;33069;51.970;5.892;2022-12-20T14:01:06;10.90;89.80
47338;DHT22;33069;51.970;5.892;2022-12-20T14:03:32;10.90;89.70
47338;DHT22;33069;51.970;5.892;2022-12-20T14:06:08;11.00;89.70
47338;DHT22;33069;51.970;5.892;2022-12-20T14:08:37;11.20;89.70
47338;DHT22;33069;51.970;5.892;2022-12-20T14:11:17;11.10;89.50
47338;DHT22;33069;51.970;5.892;2022-12-20T14:13:51;11.10;89.40
47338;DHT22;33069;51.970;5.892;2022-12-20T14:16:19;11.20;89.50
47338;DHT22;33069;51.970;5.892;2022-12-20T14:19:00;10.90;89.30
47338;DHT22;33069;51.970;5.892;2022-12-20T14:21:28;10.80;89.40
47338;DHT22;33069;51.970;5.892;2022-12-20T14:23:56;10.80;89.60
47338;DHT22;33069;51.970;5.892;2022-12-20T14:26:34;10.70;89.60
47338;DHT22;33069;51.970;5.892;2022-12-20T14:29:02;10.70;89.80
47338;DHT22;33069;51.970;5.892;2022-12-20T14:34:24;11.00;90.10
47338;DHT22;33069;51.970;5.892;2022-12-20T14:36:50;10.90;89.90
47338;DHT22;33069;51.970;5.892;2022-12-20T14:42:13;10.80;89.80
47338;DHT22;33069;51.970;5.892;2022-12-20T14:44:41;10.80;89.80
47338;DHT22;33069;51.970;5.892;2022-12-20T14:47:17;10.70;89.80
47338;DHT22;33069;51.970;5.892;2022-12-20T14:49:53;10.90;90.10
47338;DHT22;33069;51.970;5.892;2022-12-20T14:52:32;10.90;89.90
47338;DHT22;33069;51.970;5.892;2022-12-20T14:55:05;10.80;89.80
47338;DHT22;33069;51.970;5.892;2022-12-20T15:00:21;10.70;89.90
47338;DHT22;33069;51.970;5.892;2022-12-20T15:03:15;10.80;90.10
47338;DHT22;33069;51.970;5.892;2022-12-20T15:06:00;10.90;90.30
47338;DHT22;33069;51.970;5.892;2022-12-20T15:08:28;10.80;90.10
47338;DHT22;33069;51.970;5.892;2022-12-20T15:13:43;10.60;90.10
47338;DHT22;33069;51.970;5.892;2022-12-20T15:18:42;10.60;90.30
47338;DHT22;33069;51.970;5.892;2022-12-20T15:21:24;10.80;90.50
47338;DHT22;33069;51.970;5.892;2022-12-20T15:23:53;10.70;90.40
47338;DHT22;33069;51.970;5.892;2022-12-20T15:26:22;10.70;90.50
47338;DHT22;33069;51.970;5.892;2022-12-20T15:28:48;10.80;90.40
47338;DHT22;33069;51.970;5.892;2022-12-20T15:31:16;10.70;90.20
47338;DHT22;33069;51.970;5.892;2022-12-20T15:33:43;10.70;90.20
47338;DHT22;33069;51.970;5.892;2022-12-20T15:36:26;10.60;90.20
47338;DHT22;33069;51.970;5.892;2022-12-20T15:38:54;10.70;90.30
47338;DHT22;33069;51.970;5.892;2022-12-20T15:41:30;10.50;90.20
47338;DHT22;33069;51.970;5.892;2022-12-20T15:44:04;10.70;90.30
47338;DHT22;33069;51.970;5.892;2022-12-20T15:46:30;10.70;90.30
47338;DHT22;33069;51.970;5.892;2022-12-20T15:48:56;10.70;90.20
47338;DHT22;33069;51.970;5.892;2022-12-20T15:51:32;10.60;90.20
47338;DHT22;33069;51.970;5.892;2022-12-20T15:54:01;10.60;90.20
47338;DHT22;33069;51.970;5.892;2022-12-20T15:56:28;10.60;90.10
47338;DHT22;33069;51.970;5.892;2022-12-20T15:58:54;10.60;90.10
47338;DHT22;33069;51.970;5.892;2022-12-20T16:01:24;10.40;90.10
47338;DHT22;33069;51.970;5.892;2022-12-20T16:03:50;10.50;90.10
47338;DHT22;33069;51.970;5.892;2022-12-20T16:06:15;10.60;90.30
47338;DHT22;33069;51.970;5.892;2022-12-20T16:08:41;10.60;90.30
47338;DHT22;33069;51.970;5.892;2022-12-20T16:11:40;10.50;90.20
47338;DHT22;33069;51.970;5.892;2022-12-20T16:14:09;10.40;90.10
47338;DHT22;33069;51.970;5.892;2022-12-20T16:16:37;10.50;90.20
47338;DHT22;33069;51.970;5.892;2022-12-20T16:19:02;10.50;90.30
47338;DHT22;33069;51.970;5.892;2022-12-20T16:21:34;10.50;90.40
47338;DHT22;33069;51.970;5.892;2022-12-20T16:24:01;10.40;90.30
47338;DHT22;33069;51.970;5.892;2022-12-20T16:26:27;10.60;90.50
47338;DHT22;33069;51.970;5.892;2022-12-20T16:28:54;10.40;90.40
47338;DHT22;33069;51.970;5.892;2022-12-20T16:31:37;10.70;90.50
47338;DHT22;33069;51.970;5.892;2022-12-20T16:34:06;10.40;90.30
47338;DHT22;33069;51.970;5.892;2022-12-20T16:36:32;10.40;90.40
47338;DHT22;33069;51.970;5.892;2022-12-20T16:38:58;10.50;90.50
47338;DHT22;33069;51.970;5.892;2022-12-20T16:41:26;10.30;90.40
47338;DHT22;33069;51.970;5.892;2022-12-20T16:43:54;10.70;90.60
47338;DHT22;33069;51.970;5.892;2022-12-20T16:46:21;10.60;90.50
47338;DHT22;33069;51.970;5.892;2022-12-20T16:48:48;10.40;90.40
47338;DHT22;33069;51.970;5.892;2022-12-20T16:51:24;10.50;90.40
47338;DHT22;33069;51.970;5.892;2022-12-20T16:54:15;10.40;90.40
47338;DHT22;33069;51.970;5.892;2022-12-20T16:56:41;10.40;90.40
47338;DHT22;33069;51.970;5.892;2022-12-20T16:59:08;10.60;90.70
47338;DHT22;33069;51.970;5.892;2022-12-20T17:01:36;10.50;90.50
47338;DHT22;33069;51.970;5.892;2022-12-20T17:04:03;10.40;90.50
47338;DHT22;33069;51.970;5.892;2022-12-20T17:06:29;10.60;90.60
47338;DHT22;33069;51.970;5.892;2022-12-20T17:08:55;10.70;90.60
47338;DHT22;33069;51.970;5.892;2022-12-20T17:11:22;10.60;90.40
47338;DHT22;33069;51.970;5.892;2022-12-20T17:13:51;10.70;90.40
47338;DHT22;33069;51.970;5.892;2022-12-20T17:16:17;10.50;90.30
47338;DHT22;33069;51.970;5.892;2022-12-20T17:18:44;10.70;90.50
47338;DHT22;33069;51.970;5.892;2022-12-20T17:23:56;10.70;90.30
47338;DHT22;33069;51.970;5.892;2022-12-20T17:26:27;10.50;90.20
47338;DHT22;33069;51.970;5.892;2022-12-20T17:28:54;10.40;90.30
47338;DHT22;33069;51.970;5.892;2022-12-20T17:31:30;10.30;90.30
47338;DHT22;33069;51.970;5.892;2022-12-20T17:34:01;10.60;90.60
47338;DHT22;33069;51.970;5.892;2022-12-20T17:36:28;10.40;90.50
47338;DHT22;33069;51.970;5.892;2022-12-20T17:38:53;10.60;90.60
47338;DHT22;33069;51.970;5.892;2022-12-20T17:43:47;10.40;90.60
47338;DHT22;33069;51.970;5.892;2022-12-20T17:46:12;10.50;90.60
47338;DHT22;33069;51.970;5.892;2022-12-20T17:48:39;10.30;90.50
47338;DHT22;33069;51.970;5.892;2022-12-20T17:51:23;10.50;90.70
47338;DHT22;33069;51.970;5.892;2022-12-20T17:53:54;10.30;90.70
47338;DHT22;33069;51.970;5.892;2022-12-20T17:56:25;10.40;90.80
47338;DHT22;33069;51.970;5.892;2022-12-20T17:58:53;10.20;90.80
47338;DHT22;33069;51.970;5.892;2022-12-20T18:01:24;10.40;90.90
47338;DHT22;33069;51.970;5.892;2022-12-20T18:03:52;10.40;90.90
47338;DHT22;33069;51.970;5.892;2022-12-20T18:06:18;10.30;90.80